Time;durP1;ratioP1;P1;durP2;ratioP2;P2;SDS_P1;SDS_P2;PMS_P1;PMS_P2;Temp;Humidity;BMP_temperature;BMP_pressure;BME280_temperature;BME280_humidity;BME280_pressure;Samples;Min_cycle;Max_cycle;Signal;HPM_P1;HPM_P2
2023/05/20 00:01:17;;;;;;;14.73;6.00;;;14.00;99.90;;;;;;7294868;19;20196;-88
2023/05/20 00:03:43;;;;;;;14.20;5.90;;;14.00;99.90;;;;;;7295771;19;20720;-89
2023/05/20 00:06:09;;;;;;;16.00;6.17;;;14.00;99.90;;;;;;7294047;19;20187;-89
2023/05/20 00:08:34;;;;;;;15.70;6.10;;;14.00;99.90;;;;;;7294974;19;20221;-89
2023/05/20 00:11:00;;;;;;;12.20;5.77;;;14.10;99.90;;;;;;7294457;19;20188;-89
2023/05/20 00:13:26;;;;;;;13.40;5.47;;;14.10;99.90;;;;;;7294298;19;20191;-89
2023/05/20 00:15:52;;;;;;;16.70;5.40;;;14.00;99.90;;;;;;7314956;19;20666;-88
2023/05/20 00:18:18;;;;;;;13.43;5.13;;;13.90;99.90;;;;;;7295184;19;20192;-89
2023/05/20 00:20:44;;;;;;;11.90;4.87;;;13.90;99.90;;;;;;7294162;19;20217;-88
2023/05/20 00:23:10;;;;;;;15.63;5.13;;;14.00;99.90;;;;;;7294838;19;20227;-89
2023/05/20 00:25:35;;;;;;;11.40;4.33;;;14.10;99.90;;;;;;7293390;19;20190;-88
2023/05/20 00:28:01;;;;;;;13.17;4.63;;;14.10;99.90;;;;;;7293210;19;20769;-89
2023/05/20 00:30:27;;;;;;;10.93;4.17;;;14.10;99.90;;;;;;7293861;19;20204;-89
2023/05/20 00:32:53;;;;;;;10.13;3.90;;;14.00;99.90;;;;;;7315227;19;20264;-89
2023/05/20 00:35:19;;;;;;;11.23;3.77;;;14.10;99.90;;;;;;7302238;19;20202;-90
2023/05/20 00:37:45;;;;;;;12.47;4.47;;;14.20;99.90;;;;;;7295932;19;20361;-90
2023/05/20 00:40:11;;;;;;;12.27;4.10;;;14.10;99.90;;;;;;7292746;19;20213;-90
2023/05/20 00:42:37;;;;;;;9.73;3.77;;;14.10;99.90;;;;;;7291883;19;20197;-90
2023/05/20 00:45:03;;;;;;;13.73;4.17;;;14.10;99.90;;;;;;7292035;19;20292;-90
2023/05/20 00:47:32;;;;;;;10.37;3.90;;;14.20;99.90;;;;;;7292660;19;20193;-90
2023/05/20 00:49:59;;;;;;;11.57;3.60;;;14.10;99.90;;;;;;7291586;19;20701;-90
2023/05/20 00:52:26;;;;;;;10.27;3.97;;;14.10;99.90;;;;;;7299252;19;20209;-90
2023/05/20 00:54:52;;;;;;;11.17;4.23;;;14.00;99.90;;;;;;7313157;19;20552;-90
2023/05/20 00:57:18;;;;;;;10.40;4.17;;;13.90;99.90;;;;;;7292024;19;20190;-90
2023/05/20 00:59:44;;;;;;;11.67;3.90;;;14.10;99.90;;;;;;7291434;19;20237;-90
2023/05/20 01:02:10;;;;;;;10.37;3.80;;;14.00;99.90;;;;;;7291482;19;20193;-90
2023/05/20 01:04:36;;;;;;;10.17;3.90;;;14.10;99.90;;;;;;7292038;19;20195;-90
2023/05/20 01:07:04;;;;;;;12.57;3.80;;;14.10;99.90;;;;;;7292022;19;20222;-91
2023/05/20 01:09:32;;;;;;;11.00;3.87;;;14.10;99.90;;;;;;7291330;19;20184;-90
2023/05/20 01:12:24;;;;;;;10.40;3.80;;;13.90;99.90;;;;;;7289649;19;20184;-91
2023/05/20 01:15:13;;;;;;;9.57;4.00;;;14.00;99.90;;;;;;7291415;19;20202;-90
2023/05/20 01:17:46;;;;;;;12.20;3.93;;;13.80;99.90;;;;;;7189229;19;2004416;-90
2023/05/20 01:20:13;;;;;;;8.67;3.90;;;13.60;99.90;;;;;;7291268;19;20198;-91
2023/05/20 01:22:52;;;;;;;11.00;3.93;;;13.60;99.90;;;;;;7288273;19;20206;-90
2023/05/20 01:25:18;;;;;;;8.80;4.03;;;13.70;99.90;;;;;;7292520;19;20294;-90
2023/05/20 01:27:47;;;;;;;12.27;4.13;;;13.70;99.90;;;;;;7291516;19;20253;-90
2023/05/20 01:30:14;;;;;;;8.90;3.97;;;13.70;99.90;;;;;;7293137;19;21425;-90
2023/05/20 01:32:49;;;;;;;11.97;4.60;;;13.70;99.90;;;;;;7291378;19;20672;-91
2023/05/20 01:35:16;;;;;;;11.37;4.60;;;13.70;99.90;;;;;;7291072;19;20218;-90
2023/05/20 01:37:43;;;;;;;13.17;4.47;;;13.60;99.90;;;;;;7293122;19;20189;-90
2023/05/20 01:40:12;;;;;;;13.33;4.10;;;13.60;99.90;;;;;;7291155;19;20657;-90
2023/05/20 01:42:40;;;;;;;10.10;3.77;;;13.60;99.90;;;;;;7291675;19;20198;-91
2023/05/20 01:45:06;;;;;;;10.13;3.70;;;13.60;99.90;;;;;;7291565;19;20757;-90
2023/05/20 01:47:32;;;;;;;9.80;4.43;;;13.60;99.90;;;;;;7291585;19;20198;-90
2023/05/20 01:49:58;;;;;;;11.80;3.90;;;13.50;99.90;;;;;;7290625;19;20186;-90
2023/05/20 01:52:24;;;;;;;10.87;4.30;;;13.60;99.90;;;;;;7308426;19;20692;-90
2023/05/20 01:54:50;;;;;;;8.73;4.00;;;13.70;99.90;;;;;;7304167;19;20266;-90
2023/05/20 01:57:19;;;;;;;10.53;3.90;;;13.60;99.90;;;;;;7291725;19;20228;-89
2023/05/20 01:59:46;;;;;;;9.60;4.07;;;13.60;99.90;;;;;;7290884;19;20188;-90
2023/05/20 02:02:12;;;;;;;8.47;3.97;;;13.60;99.90;;;;;;7290057;19;20211;-89
2023/05/20 02:04:38;;;;;;;12.70;4.30;;;13.50;99.90;;;;;;7290486;19;20250;-90
2023/05/20 02:07:05;;;;;;;11.63;4.37;;;13.40;99.90;;;;;;7290111;19;20190;-91
2023/05/20 02:09:31;;;;;;;11.03;4.37;;;13.40;99.90;;;;;;7290844;19;20642;-90
2023/05/20 02:11:57;;;;;;;12.70;4.20;;;13.50;99.90;;;;;;7290490;19;20196;-90
2023/05/20 02:14:23;;;;;;;11.73;4.40;;;13.50;99.90;;;;;;7311066;19;20193;-90
2023/05/20 02:16:48;;;;;;;8.73;3.67;;;13.30;99.90;;;;;;7290287;19;20186;-90
2023/05/20 02:19:18;;;;;;;9.77;4.07;;;13.40;99.90;;;;;;7289166;19;20185;-90
2023/05/20 02:21:46;;;;;;;10.57;3.83;;;13.50;99.90;;;;;;7289020;19;20230;-90
2023/05/20 02:24:12;;;;;;;11.63;4.10;;;13.50;99.90;;;;;;7289999;19;20202;-89
2023/05/20 02:26:38;;;;;;;8.37;3.80;;;13.40;99.90;;;;;;7288237;19;20189;-90
2023/05/20 02:29:04;;;;;;;8.20;3.70;;;13.40;99.90;;;;;;7288314;19;20648;-90
2023/05/20 02:31:29;;;;;;;9.20;3.83;;;13.30;99.90;;;;;;7288969;19;20650;-91
2023/05/20 02:33:55;;;;;;;10.03;3.90;;;13.20;99.90;;;;;;7288787;19;20201;-90
2023/05/20 02:36:21;;;;;;;9.23;4.17;;;13.20;99.90;;;;;;7312125;19;20191;-90
2023/05/20 02:38:47;;;;;;;11.63;4.43;;;13.20;99.90;;;;;;7289765;19;20210;-90
2023/05/20 02:41:13;;;;;;;9.30;3.90;;;13.20;99.90;;;;;;7289585;19;20202;-91
2023/05/20 02:43:43;;;;;;;9.97;3.53;;;13.20;99.90;;;;;;7290938;19;20213;-90
2023/05/20 02:46:09;;;;;;;9.47;3.70;;;13.30;99.90;;;;;;7291053;19;20209;-90
2023/05/20 02:48:35;;;;;;;11.97;4.20;;;13.30;99.90;;;;;;7290083;19;20636;-89
2023/05/20 02:51:01;;;;;;;10.67;3.73;;;13.20;99.90;;;;;;7291026;19;20591;-91
2023/05/20 02:53:27;;;;;;;12.27;4.13;;;13.10;99.90;;;;;;7289837;19;20252;-90
2023/05/20 02:55:53;;;;;;;9.17;3.77;;;13.10;99.90;;;;;;7312434;19;20193;-90
2023/05/20 02:58:25;;;;;;;10.60;3.77;;;13.00;99.90;;;;;;7289843;19;20665;-90
2023/05/20 03:00:53;;;;;;;12.57;4.47;;;13.10;99.90;;;;;;7288921;19;20211;-90
2023/05/20 03:03:19;;;;;;;13.83;4.20;;;13.00;99.90;;;;;;7289140;19;20278;-89
2023/05/20 03:05:45;;;;;;;8.23;3.50;;;13.00;99.90;;;;;;7290172;19;20184;-90
2023/05/20 03:08:11;;;;;;;10.10;4.10;;;13.10;99.90;;;;;;7288445;19;20192;-90
2023/05/20 03:10:38;;;;;;;10.80;3.83;;;12.90;99.90;;;;;;7290163;19;20192;-90
2023/05/20 03:13:07;;;;;;;12.00;3.93;;;13.00;99.90;;;;;;7289169;19;20191;-89
2023/05/20 03:15:36;;;;;;;9.23;3.77;;;13.00;99.90;;;;;;7286683;19;20266;-90
2023/05/20 03:18:02;;;;;;;11.47;3.90;;;12.80;99.90;;;;;;7289535;19;20693;-90
2023/05/20 03:20:28;;;;;;;11.30;3.90;;;12.70;99.90;;;;;;7288801;19;20258;-90
2023/05/20 03:22:55;;;;;;;8.97;3.80;;;12.70;99.90;;;;;;7300501;19;20187;-91
2023/05/20 03:25:21;;;;;;;11.53;4.07;;;12.70;99.90;;;;;;7311971;19;20197;-90
2023/05/20 03:27:47;;;;;;;9.87;3.67;;;12.90;99.90;;;;;;7287873;19;20199;-90
2023/05/20 03:30:16;;;;;;;9.93;4.00;;;12.90;99.90;;;;;;7287481;19;20190;-88
2023/05/20 03:32:43;;;;;;;11.47;4.53;;;12.90;99.90;;;;;;7288248;19;20189;-90
2023/05/20 03:35:09;;;;;;;8.27;3.83;;;12.90;99.90;;;;;;7288042;19;20190;-90
2023/05/20 03:37:35;;;;;;;8.67;4.10;;;12.90;99.90;;;;;;7288220;19;20191;-91
2023/05/20 03:40:05;;;;;;;9.57;4.20;;;12.90;99.90;;;;;;7289617;19;20199;-89
2023/05/20 03:42:33;;;;;;;11.37;4.27;;;12.90;99.90;;;;;;7290158;19;20212;-89
2023/05/20 03:44:59;;;;;;;10.13;3.73;;;12.80;99.90;;;;;;7288664;19;20213;-91
2023/05/20 03:47:29;;;;;;;13.53;3.93;;;12.90;99.90;;;;;;7287255;19;20700;-90
2023/05/20 03:49:55;;;;;;;12.63;4.23;;;12.70;99.90;;;;;;7295554;19;20192;-91
2023/05/20 03:52:21;;;;;;;10.60;3.93;;;12.70;99.90;;;;;;7310410;19;20193;-91
2023/05/20 03:54:47;;;;;;;9.00;4.00;;;12.70;99.90;;;;;;7288177;19;20205;-90
2023/05/20 03:57:12;;;;;;;11.47;4.27;;;12.70;99.90;;;;;;7285864;19;20192;-90
2023/05/20 03:59:39;;;;;;;9.60;4.20;;;12.70;99.90;;;;;;7287845;19;20189;-90
2023/05/20 04:02:05;;;;;;;12.90;4.50;;;12.60;99.90;;;;;;7287716;19;20203;-91
2023/05/20 04:04:31;;;;;;;10.00;3.97;;;12.80;99.90;;;;;;7287464;19;20195;-91
2023/05/20 04:06:59;;;;;;;16.03;4.57;;;12.70;99.90;;;;;;7287793;19;20276;-90
2023/05/20 04:09:26;;;;;;;10.37;4.53;;;12.70;99.90;;;;;;7294662;19;20190;-90
2023/05/20 04:11:52;;;;;;;13.50;4.50;;;12.60;99.90;;;;;;7310182;19;20772;-88
2023/05/20 04:14:17;;;;;;;10.87;4.50;;;12.60;99.90;;;;;;7286489;19;20197;-88
2023/05/20 04:16:44;;;;;;;11.10;4.03;;;12.60;99.90;;;;;;7286665;19;20196;-88
2023/05/20 04:19:11;;;;;;;10.10;4.50;;;12.60;99.90;;;;;;7286580;19;20597;-88
2023/05/20 04:21:37;;;;;;;11.57;4.63;;;12.70;99.90;;;;;;7286182;19;20210;-89
2023/05/20 04:24:04;;;;;;;10.73;4.57;;;12.80;99.90;;;;;;7286034;19;20191;-89
2023/05/20 04:26:30;;;;;;;10.20;4.37;;;12.80;99.90;;;;;;7287363;19;20216;-89
2023/05/20 04:28:57;;;;;;;12.40;4.50;;;12.80;99.90;;;;;;7293756;19;20201;-88
2023/05/20 04:31:27;;;;;;;11.83;4.50;;;12.80;99.90;;;;;;7311700;19;20190;-89
2023/05/20 04:33:53;;;;;;;11.97;4.50;;;12.80;99.90;;;;;;7315466;19;20203;-89
2023/05/20 04:36:19;;;;;;;14.03;4.90;;;12.80;99.90;;;;;;7293185;19;20193;-89
2023/05/20 04:38:47;;;;;;;12.83;4.70;;;12.90;99.90;;;;;;7294666;19;20182;-90
2023/05/20 04:41:15;;;;;;;10.53;4.80;;;13.10;99.90;;;;;;7292656;19;20210;-88
2023/05/20 04:43:41;;;;;;;12.57;4.53;;;13.20;99.90;;;;;;7295600;19;20189;-90
2023/05/20 04:46:08;;;;;;;15.07;4.20;;;13.50;99.90;;;;;;7294152;19;20190;-89
2023/05/20 04:48:35;;;;;;;11.10;4.53;;;14.00;99.90;;;;;;7291413;19;20194;-89
2023/05/20 04:51:01;;;;;;;10.73;4.30;;;14.60;99.90;;;;;;7292741;19;20299;-89
2023/05/20 04:53:26;;;;;;;10.13;4.10;;;15.30;99.90;;;;;;7292136;19;20654;-90
2023/05/20 04:55:56;;;;;;;12.70;4.00;;;15.60;99.90;;;;;;7313836;19;20195;-89
2023/05/20 04:58:23;;;;;;;12.43;4.60;;;16.20;99.90;;;;;;7293653;19;20209;-89
2023/05/20 05:00:50;;;;;;;9.77;4.13;;;16.70;99.90;;;;;;7291606;19;20192;-89
2023/05/20 05:03:16;;;;;;;10.17;4.27;;;17.30;99.90;;;;;;7291020;19;20196;-89
2023/05/20 05:05:43;;;;;;;9.30;3.93;;;17.60;99.90;;;;;;7290567;19;20193;-89
2023/05/20 05:08:12;;;;;;;11.10;4.50;;;17.30;99.90;;;;;;7290172;19;20262;-89
2023/05/20 05:10:44;;;;;;;12.70;4.10;;;17.30;99.90;;;;;;7292010;19;20257;-90
2023/05/20 05:13:10;;;;;;;10.90;4.10;;;17.90;99.90;;;;;;7291575;19;20203;-89
2023/05/20 05:15:36;;;;;;;10.30;4.13;;;18.60;99.90;;;;;;7289568;19;20185;-90
2023/05/20 05:18:03;;;;;;;11.00;4.23;;;19.40;99.90;;;;;;7290838;19;20217;-89
2023/05/20 05:20:29;;;;;;;8.37;3.67;;;20.20;99.90;;;;;;7290701;19;20679;-89
2023/05/20 05:22:55;;;;;;;11.63;4.33;;;20.10;99.90;;;;;;7302974;19;20193;-89
2023/05/20 05:25:21;;;;;;;8.60;4.30;;;19.70;99.90;;;;;;7308891;19;20190;-88
2023/05/20 05:27:49;;;;;;;14.37;4.53;;;20.10;99.90;;;;;;7290135;19;20198;-89
2023/05/20 05:30:16;;;;;;;10.07;4.30;;;20.20;99.90;;;;;;7290433;19;20202;-89
2023/05/20 05:32:42;;;;;;;12.73;4.43;;;20.50;99.90;;;;;;7290039;19;20182;-91
2023/05/20 05:35:08;;;;;;;9.63;4.27;;;20.20;99.90;;;;;;7290551;19;20655;-89
2023/05/20 05:37:34;;;;;;;10.73;4.13;;;20.10;99.90;;;;;;7290506;19;20193;-89
2023/05/20 05:40:00;;;;;;;13.97;4.60;;;20.10;99.90;;;;;;7288390;19;20181;-88
2023/05/20 05:42:26;;;;;;;11.33;4.37;;;20.40;99.90;;;;;;7291136;19;20184;-88
2023/05/20 05:44:52;;;;;;;8.60;4.20;;;20.20;99.90;;;;;;7311853;19;20196;-89
2023/05/20 05:47:20;;;;;;;13.03;4.57;;;19.70;99.90;;;;;;7290366;19;20186;-89
2023/05/20 05:49:46;;;;;;;10.43;4.70;;;20.20;99.90;;;;;;7290696;19;20184;-88
2023/05/20 05:52:12;;;;;;;10.10;4.30;;;21.00;99.90;;;;;;7289716;19;20202;-88
2023/05/20 05:54:39;;;;;;;13.40;4.50;;;22.00;99.90;;;;;;7290121;19;20196;-90
2023/05/20 05:57:06;;;;;;;9.47;4.57;;;21.90;99.90;;;;;;7289874;19;20185;-88
2023/05/20 05:59:33;;;;;;;10.00;4.40;;;21.80;99.90;;;;;;7289483;19;20621;-89
2023/05/20 06:01:59;;;;;;;13.27;4.27;;;22.10;99.90;;;;;;7288454;19;20182;-88
2023/05/20 06:04:25;;;;;;;11.40;4.60;;;21.40;99.90;;;;;;7299722;19;20193;-88
2023/05/20 06:06:54;;;;;;;12.37;4.47;;;20.80;99.90;;;;;;7308669;19;20180;-90
2023/05/20 06:09:20;;;;;;;9.23;4.50;;;20.80;99.90;;;;;;7299906;19;20221;-88
2023/05/20 06:11:46;;;;;;;11.20;4.23;;;20.80;99.90;;;;;;7288620;19;20989;-88
2023/05/20 06:14:12;;;;;;;10.30;4.63;;;20.80;99.90;;;;;;7289655;19;20184;-87
2023/05/20 06:16:38;;;;;;;9.40;4.20;;;20.70;99.90;;;;;;7290058;19;20189;-89
2023/05/20 06:19:05;;;;;;;11.83;4.60;;;20.90;99.90;;;;;;7289030;19;20198;-89
2023/05/20 06:21:31;;;;;;;9.50;3.97;;;21.00;99.90;;;;;;7287982;19;20566;-88
2023/05/20 06:23:57;;;;;;;9.47;4.07;;;20.90;99.90;;;;;;7288992;19;20286;-89
2023/05/20 06:26:23;;;;;;;16.50;4.17;;;21.00;99.90;;;;;;7310710;19;20188;-89
2023/05/20 06:28:48;;;;;;;12.40;4.20;;;21.40;99.90;;;;;;7289081;19;20200;-89
2023/05/20 06:31:14;;;;;;;11.23;4.10;;;21.00;99.90;;;;;;7289319;19;20194;-89
2023/05/20 06:33:40;;;;;;;10.90;4.50;;;20.80;99.90;;;;;;7288098;19;20196;-89
2023/05/20 06:36:10;;;;;;;11.33;4.03;;;20.50;99.90;;;;;;7288001;19;20652;-89
2023/05/20 06:38:36;;;;;;;11.77;4.50;;;20.00;99.90;;;;;;7287046;19;20567;-88
2023/05/20 06:41:02;;;;;;;10.97;4.13;;;19.90;99.90;;;;;;7286858;19;20186;-89
2023/05/20 06:43:30;;;;;;;8.80;3.80;;;19.80;99.90;;;;;;7286429;19;20691;-88
2023/05/20 06:46:22;;;;;;;9.37;4.13;;;20.70;99.90;;;;;;7287712;19;20195;-90
2023/05/20 06:48:59;;;;;;;10.73;4.00;;;20.90;99.90;;;;;;7267036;19;20184;-89
2023/05/20 06:51:27;;;;;;;10.47;3.77;;;21.50;99.90;;;;;;7303205;19;20183;-90
2023/05/20 06:53:54;;;;;;;9.77;4.13;;;21.80;99.90;;;;;;7309038;19;20193;-90
2023/05/20 06:56:20;;;;;;;8.90;3.70;;;22.00;99.90;;;;;;7288560;19;20672;-91
2023/05/20 06:58:46;;;;;;;10.37;4.40;;;22.20;99.90;;;;;;7287604;19;20174;-89
2023/05/20 07:01:13;;;;;;;8.93;3.80;;;22.50;99.90;;;;;;7286294;19;20269;-89
2023/05/20 07:03:40;;;;;;;9.20;4.17;;;22.50;99.90;;;;;;7286772;19;20189;-90
2023/05/20 07:06:09;;;;;;;9.02;3.70;;;22.80;99.90;;;;;;7284247;19;20193;-89
2023/05/20 07:08:35;;;;;;;10.05;3.92;;;24.10;99.90;;;;;;7289069;19;20181;-90
2023/05/20 07:11:01;;;;;;;8.30;4.00;;;24.00;99.90;;;;;;7287338;19;20185;-89
2023/05/20 07:13:28;;;;;;;8.80;3.72;;;23.90;99.90;;;;;;7287769;19;20933;-89
2023/05/20 07:15:56;;;;;;;8.13;3.90;;;23.80;99.90;;;;;;7309770;19;20181;-88
2023/05/20 07:18:22;;;;;;;8.10;3.50;;;23.50;99.90;;;;;;7288569;19;20188;-89
2023/05/20 07:20:55;;;;;;;7.60;3.70;;;23.20;99.90;;;;;;7288407;19;20180;-89
2023/05/20 07:23:33;;;;;;;10.80;3.90;;;23.80;99.90;;;;;;7184879;19;2004412;-88
2023/05/20 07:25:59;;;;;;;7.72;3.38;;;24.30;99.90;;;;;;7286153;19;20277;-89
2023/05/20 07:28:25;;;;;;;7.97;3.45;;;24.30;99.90;;;;;;7306184;19;20757;-90
2023/05/20 07:30:51;;;;;;;9.50;3.83;;;24.40;99.90;;;;;;7301410;19;20193;-89
2023/05/20 07:33:20;;;;;;;8.88;3.63;;;25.10;99.90;;;;;;7287427;19;20205;-89
2023/05/20 07:35:47;;;;;;;6.95;3.30;;;25.90;99.90;;;;;;7286160;19;20209;-88
2023/05/20 07:38:13;;;;;;;7.55;3.83;;;26.00;99.90;;;;;;7286877;19;20195;-90
2023/05/20 07:40:41;;;;;;;8.98;3.30;;;25.70;99.60;;;;;;7286222;19;20277;-88
2023/05/20 07:43:08;;;;;;;7.07;3.50;;;24.80;99.50;;;;;;7286993;19;20198;-88
2023/05/20 07:45:35;;;;;;;6.75;3.28;;;24.00;99.90;;;;;;7286135;19;20189;-88
2023/05/20 07:48:02;;;;;;;7.60;3.20;;;24.80;99.90;;;;;;7286164;19;20302;-89
2023/05/20 07:50:28;;;;;;;8.05;3.33;;;26.30;98.90;;;;;;7285828;19;20648;-90
2023/05/20 07:52:54;;;;;;;7.32;3.28;;;25.60;98.60;;;;;;7307748;19;20261;-89
2023/05/20 07:55:20;;;;;;;8.38;3.47;;;25.30;98.50;;;;;;7283934;19;20188;-89
2023/05/20 07:57:45;;;;;;;8.43;3.90;;;24.90;98.80;;;;;;7286198;19;20528;-90
2023/05/20 08:00:13;;;;;;;7.97;3.60;;;24.80;98.80;;;;;;7285955;19;20200;-89
2023/05/20 08:02:42;;;;;;;7.68;3.38;;;24.90;98.90;;;;;;7289292;19;20189;-90
2023/05/20 08:05:12;;;;;;;6.05;2.95;;;25.70;97.80;;;;;;7292743;19;20192;-89
2023/05/20 08:07:37;;;;;;;7.28;3.50;;;26.50;97.10;;;;;;7292245;19;20200;-90
2023/05/20 08:10:04;;;;;;;9.57;3.60;;;26.00;96.50;;;;;;7293149;19;20192;-89
2023/05/20 08:12:30;;;;;;;8.18;2.95;;;25.50;95.70;;;;;;7297165;19;20192;-90
2023/05/20 08:14:56;;;;;;;9.32;3.67;;;26.00;96.20;;;;;;7307413;19;20201;-89
2023/05/20 08:17:22;;;;;;;5.97;2.75;;;26.20;95.00;;;;;;7314434;19;20191;-89
2023/05/20 08:19:48;;;;;;;9.43;3.20;;;26.30;95.40;;;;;;7293809;19;20200;-89
2023/05/20 08:22:14;;;;;;;10.20;3.47;;;26.00;95.10;;;;;;7292116;19;20252;-90
2023/05/20 08:24:40;;;;;;;8.35;3.10;;;25.60;94.00;;;;;;7292735;19;20209;-89
2023/05/20 08:27:05;;;;;;;8.15;3.33;;;24.80;93.40;;;;;;7292457;19;20192;-89
2023/05/20 08:29:32;;;;;;;6.93;3.05;;;24.70;95.10;;;;;;7292019;19;20197;-89
2023/05/20 08:31:58;;;;;;;6.38;3.00;;;24.90;95.00;;;;;;7291784;19;20202;-89
2023/05/20 08:34:25;;;;;;;5.95;2.85;;;24.70;94.60;;;;;;7302089;19;20203;-89
2023/05/20 08:36:51;;;;;;;9.00;3.00;;;25.50;95.10;;;;;;7307461;19;20553;-89
2023/05/20 08:39:17;;;;;;;8.13;2.90;;;25.40;93.50;;;;;;7292045;19;20202;-90
2023/05/20 08:41:46;;;;;;;7.97;2.85;;;25.00;94.60;;;;;;7290251;19;20201;-89
2023/05/20 08:44:12;;;;;;;6.70;2.92;;;25.50;93.50;;;;;;7292434;19;20192;-89
2023/05/20 08:46:40;;;;;;;7.43;3.10;;;25.30;92.50;;;;;;7291683;19;20652;-89
2023/05/20 08:49:07;;;;;;;6.72;2.80;;;24.80;93.40;;;;;;7291498;19;20257;-89
2023/05/20 08:51:35;;;;;;;7.25;2.85;;;25.30;93.70;;;;;;7291271;19;20184;-89
2023/05/20 08:54:12;;;;;;;6.35;2.53;;;26.30;94.30;;;;;;7291574;19;20184;-89
2023/05/20 08:56:43;;;;;;;9.43;2.88;;;27.60;90.70;;;;;;7288098;19;20185;-89
2023/05/20 08:59:09;;;;;;;8.02;2.65;;;27.20;90.00;;;;;;7291440;19;20185;-90
2023/05/20 09:01:42;;;;;;;8.50;2.90;;;25.90;90.10;;;;;;7291271;19;20212;-89
2023/05/20 09:04:08;;;;;;;10.68;3.15;;;25.30;91.20;;;;;;7291640;19;20191;-90
2023/05/20 09:06:46;;;;;;;10.00;2.85;;;24.80;92.40;;;;;;7291589;19;20181;-90
2023/05/20 09:09:13;;;;;;;6.05;2.83;;;24.80;92.70;;;;;;7290922;19;20185;-91
2023/05/20 09:11:40;;;;;;;9.18;2.47;;;25.30;92.20;;;;;;7291761;19;20185;-88
2023/05/20 09:14:06;;;;;;;9.43;3.25;;;25.40;92.60;;;;;;7287368;19;20201;-90
2023/05/20 09:16:33;;;;;;;10.70;3.20;;;25.50;91.90;;;;;;7288985;19;20189;-88
2023/05/20 09:18:59;;;;;;;7.38;2.70;;;24.90;92.50;;;;;;7295900;19;20199;-89
2023/05/20 09:21:30;;;;;;;8.00;2.95;;;25.90;92.10;;;;;;7310923;19;20296;-89
2023/05/20 09:23:58;;;;;;;8.10;2.78;;;26.10;91.50;;;;;;7273208;19;20202;-90
2023/05/20 09:26:27;;;;;;;5.97;2.40;;;26.70;90.30;;;;;;7312737;19;20187;-90
2023/05/20 09:28:55;;;;;;;5.93;2.60;;;26.60;90.20;;;;;;7288016;19;20185;-89
2023/05/20 09:31:24;;;;;;;6.63;2.53;;;25.40;89.80;;;;;;7291233;19;20198;-89
2023/05/20 09:33:51;;;;;;;12.23;2.72;;;24.60;91.40;;;;;;7290442;19;20193;-89
2023/05/20 09:36:20;;;;;;;9.52;3.05;;;23.60;93.60;;;;;;7290688;19;20266;-89
2023/05/20 09:38:49;;;;;;;5.85;2.60;;;23.70;93.10;;;;;;7290655;19;20190;-89
2023/05/20 09:41:17;;;;;;;10.68;2.90;;;24.60;92.60;;;;;;7289908;19;20209;-88
2023/05/20 09:43:43;;;;;;;6.82;2.42;;;25.60;92.00;;;;;;7289491;19;20189;-88
2023/05/20 09:46:10;;;;;;;8.63;2.50;;;26.20;90.70;;;;;;7290197;19;20185;-88
2023/05/20 09:48:36;;;;;;;6.10;2.70;;;26.20;90.80;;;;;;7288125;19;20199;-87
2023/05/20 09:51:04;;;;;;;6.10;2.47;;;26.50;90.00;;;;;;7289614;19;20189;-88
2023/05/20 09:53:30;;;;;;;7.45;2.85;;;26.00;89.40;;;;;;7290110;19;20213;-88
2023/05/20 09:55:57;;;;;;;5.63;2.72;;;26.00;88.90;;;;;;7309849;19;20187;-88
2023/05/20 09:58:24;;;;;;;7.72;2.92;;;25.20;90.30;;;;;;7310857;19;20192;-88
2023/05/20 10:00:50;;;;;;;5.22;2.80;;;24.50;90.60;;;;;;7289482;19;20197;-89
2023/05/20 10:03:17;;;;;;;5.40;2.40;;;24.90;91.80;;;;;;7289299;19;20201;-88
2023/05/20 10:05:55;;;;;;;7.25;2.40;;;24.70;90.70;;;;;;7290257;19;20192;-89
2023/05/20 10:08:24;;;;;;;9.25;2.72;;;24.40;91.10;;;;;;7290647;19;20528;-89
2023/05/20 10:11:02;;;;;;;5.40;2.55;;;24.80;90.90;;;;;;7289972;19;20177;-89
2023/05/20 10:13:52;;;;;;;5.18;2.65;;;25.10;90.80;;;;;;7268656;19;20652;-88
2023/05/20 10:16:33;;;;;;;5.45;2.20;;;25.80;90.40;;;;;;7290454;19;20193;-89
2023/05/20 10:19:31;;;;;;;7.18;2.70;;;26.40;90.80;;;;;;7269378;19;20181;-89
2023/05/20 10:22:02;;;;;;;6.65;2.72;;;27.00;88.40;;;;;;7277690;19;20192;-88
2023/05/20 10:24:33;;;;;;;6.05;2.33;;;27.30;87.50;;;;;;7291232;19;20189;-89
2023/05/20 10:27:01;;;;;;;9.13;2.35;;;27.70;86.90;;;;;;7287316;19;20181;-89
2023/05/20 10:29:27;;;;;;;7.18;2.60;;;27.60;87.20;;;;;;7297095;19;20185;-89
2023/05/20 10:31:54;;;;;;;5.50;2.30;;;28.60;83.00;;;;;;7310808;19;20200;-89
2023/05/20 10:34:22;;;;;;;8.73;2.60;;;27.50;83.40;;;;;;7286619;19;20188;-89
2023/05/20 10:36:52;;;;;;;9.63;2.47;;;27.00;86.90;;;;;;7287855;19;20670;-89
2023/05/20 10:39:25;;;;;;;6.75;2.60;;;26.60;88.40;;;;;;7287388;19;20236;-89
2023/05/20 10:41:51;;;;;;;8.73;2.67;;;26.60;87.10;;;;;;7287736;19;20224;-89
2023/05/20 10:44:16;;;;;;;7.57;2.60;;;26.00;85.70;;;;;;7290746;19;20697;-89
2023/05/20 10:46:42;;;;;;;5.53;2.67;;;25.30;87.10;;;;;;7287605;19;20197;-89
2023/05/20 10:49:18;;;;;;;5.22;2.78;;;25.60;88.30;;;;;;7286047;19;20201;-89
2023/05/20 10:51:45;;;;;;;5.68;2.72;;;26.10;87.30;;;;;;7289004;19;20199;-89
2023/05/20 10:54:12;;;;;;;6.55;2.92;;;26.60;86.20;;;;;;7287510;19;20181;-89
2023/05/20 10:56:49;;;;;;;7.75;2.92;;;26.20;86.00;;;;;;7289378;19;20197;-89
2023/05/20 10:59:15;;;;;;;10.35;3.25;;;26.10;86.10;;;;;;7289336;19;20260;-89
2023/05/20 11:01:42;;;;;;;8.10;3.03;;;26.20;86.20;;;;;;7287801;19;20209;-89
2023/05/20 11:04:13;;;;;;;7.95;2.60;;;26.20;88.30;;;;;;7288010;19;20193;-89
2023/05/20 11:06:50;;;;;;;6.10;2.67;;;26.60;87.70;;;;;;7287896;19;20196;-90
2023/05/20 11:09:15;;;;;;;6.03;2.67;;;26.10;86.60;;;;;;7287776;19;20200;-90
2023/05/20 11:11:42;;;;;;;10.07;2.90;;;26.10;87.00;;;;;;7288084;19;20189;-89
2023/05/20 11:14:12;;;;;;;9.38;2.70;;;26.00;86.30;;;;;;7287971;19;20189;-89
2023/05/20 11:16:38;;;;;;;6.55;2.90;;;25.80;87.50;;;;;;7288626;19;20281;-89
2023/05/20 11:19:07;;;;;;;7.30;2.55;;;26.00;87.80;;;;;;7287060;19;20185;-89
2023/05/20 11:21:33;;;;;;;7.25;2.58;;;26.10;89.60;;;;;;7286184;19;20177;-90
2023/05/20 11:23:59;;;;;;;8.18;2.90;;;26.70;90.50;;;;;;7288111;19;20691;-89
2023/05/20 11:26:25;;;;;;;5.97;2.33;;;26.30;86.50;;;;;;7308171;19;20565;-89
2023/05/20 11:28:50;;;;;;;5.47;2.42;;;26.00;87.60;;;;;;7291407;19;20189;-89
2023/05/20 11:31:17;;;;;;;6.18;3.00;;;25.00;89.40;;;;;;7288006;19;20197;-89
2023/05/20 11:33:43;;;;;;;12.00;3.05;;;24.80;91.00;;;;;;7291572;19;20251;-89
2023/05/20 11:36:10;;;;;;;7.20;2.88;;;25.80;90.80;;;;;;7287421;19;20201;-90
2023/05/20 11:38:36;;;;;;;6.90;2.50;;;26.20;88.30;;;;;;7288051;19;20192;-89
2023/05/20 11:41:02;;;;;;;7.82;3.05;;;26.10;88.10;;;;;;7289170;19;20230;-89
2023/05/20 11:43:33;;;;;;;6.78;2.50;;;26.20;88.30;;;;;;7293183;19;20189;-89
2023/05/20 11:45:58;;;;;;;5.93;2.67;;;26.60;87.20;;;;;;7290870;19;20193;-89
2023/05/20 11:48:36;;;;;;;6.20;2.88;;;27.00;88.60;;;;;;7310126;19;20192;-90
2023/05/20 11:51:02;;;;;;;6.80;2.55;;;26.80;85.90;;;;;;7185606;19;2005035;-89
2023/05/20 11:53:28;;;;;;;6.75;2.92;;;27.10;88.60;;;;;;7287806;19;20205;-90
2023/05/20 11:55:55;;;;;;;9.55;2.58;;;27.30;86.70;;;;;;7308286;19;20220;-89
2023/05/20 11:58:27;;;;;;;9.00;3.13;;;28.30;86.40;;;;;;7287053;19;20644;-89
2023/05/20 12:00:53;;;;;;;6.70;2.63;;;28.00;81.60;;;;;;7287741;19;20699;-89
2023/05/20 12:03:19;;;;;;;5.68;2.83;;;27.50;85.70;;;;;;7285496;19;20180;-89
2023/05/20 12:05:47;;;;;;;6.65;2.60;;;27.10;85.00;;;;;;7287327;19;20188;-89
2023/05/20 12:08:13;;;;;;;9.52;2.80;;;26.20;87.40;;;;;;7286560;19;20375;-90
2023/05/20 12:10:39;;;;;;;5.15;2.50;;;25.40;87.10;;;;;;7285908;19;20181;-89
2023/05/20 12:13:09;;;;;;;9.75;2.65;;;24.60;90.40;;;;;;7286915;19;20202;-89
2023/05/20 12:15:35;;;;;;;7.47;2.90;;;24.20;91.40;;;;;;7286315;19;20189;-89
2023/05/20 12:18:01;;;;;;;5.80;2.60;;;24.10;91.70;;;;;;7286493;19;20195;-89
2023/05/20 12:20:33;;;;;;;6.60;2.85;;;24.10;92.10;;;;;;7285855;19;20177;-89
2023/05/20 12:23:00;;;;;;;7.63;2.88;;;24.10;93.10;;;;;;7284759;19;20213;-90
2023/05/20 12:25:26;;;;;;;11.50;3.10;;;23.90;92.50;;;;;;7307943;19;20173;-89
2023/05/20 12:27:52;;;;;;;6.47;2.78;;;23.80;93.90;;;;;;7285756;19;20193;-89
2023/05/20 12:30:20;;;;;;;7.95;3.08;;;23.50;94.20;;;;;;7285163;19;20182;-89
2023/05/20 12:32:46;;;;;;;6.22;2.72;;;23.40;93.50;;;;;;7286856;19;20201;-89
2023/05/20 12:35:13;;;;;;;8.20;2.90;;;23.20;94.50;;;;;;7287309;19;20193;-88
2023/05/20 12:37:40;;;;;;;6.43;2.73;;;22.90;94.00;;;;;;7286082;19;20204;-89
2023/05/20 12:40:07;;;;;;;5.97;2.80;;;22.80;95.60;;;;;;7284541;19;20585;-89
2023/05/20 12:42:40;;;;;;;6.27;3.03;;;23.00;95.30;;;;;;7285139;19;20189;-90
2023/05/20 12:45:07;;;;;;;7.83;3.60;;;23.20;94.70;;;;;;7285479;19;20189;-89